Terminal Aerodrome Forecast
Issued by NWS Shreveport, LA

Home | Current Version | Previous Version | Text Only | Print | Product List | Glossary On
Versions: 1 2 3 4 5 6 7 8 9 10 11 12 13 14 15
000
FTUS44 KSHV 260520
TAFLFK
TAF
KLFK 260520Z 2606/2706 16007KT P6SM FEW021 SCT035
      TEMPO 2606/2609 BKN020
     FM260900 19010KT P6SM OVC015
     FM261500 15012G18KT P6SM BKN035
     FM262100 14011KT P6SM VCTS BKN050CB
     FM270300 14010KT P6SM OVC015=

USA.gov is the U.S. government's official web portal to all federal, state and local government web resources and services.